Overview Statistics Trail Chart Weather Telemetry Raw packets
 

This is the latest recevied weather packets stored in our database for station/object KI5QCM-13. If no packets are shown the sender has not sent any weather packets the latest 10 day(s).

<< 1 2 3 4 5 6 >>
Time Temp. Humidity Pressure Rain* Wind** Luminosity Snow
1788414052 28.33° C 65% 1012.9 hPa 0 mm - 0 W/m² -
1788413476 28.33° C 64% 1012.8 hPa 0 mm - 0 W/m² -
1788412833 27.78° C 65% 1012.8 hPa 0 mm - 0 W/m² -
1788412234 26.11° C 71% 1012.6 hPa 0 mm - 0 W/m² -
1788411669 25.56° C 74% 1012.5 hPa 0 mm - 0 W/m² -
1788411028 25.56° C 74% 1012.6 hPa 0 mm - 0 W/m² -
1788410452 26.11° C 73% 1012.5 hPa 0 mm - 0 W/m² -
1788409861 26.67° C 72% 1012.4 hPa 0 mm - 0 W/m² -
1788409268 26.67° C 70% 1012.5 hPa 0 mm - 0 W/m² -
1788408629 27.22° C 68% 1012.7 hPa 0 mm - 0 W/m² -
1788408052 27.22° C 68% 1012.7 hPa 0 mm - 0 W/m² -
1788407460 27.22° C 68% 1012.7 hPa 0 mm - 0 W/m² -
1788406868 27.22° C 67% 1012.6 hPa 0 mm - 0 W/m² -
1788406228 27.78° C 67% 1012.6 hPa 0 mm - 0 W/m² -
1788405653 27.78° C 67% 1012.6 hPa 0 mm - 0 W/m² -
1788405076 28.33° C 65% 1012.7 hPa 0 mm - 0 W/m² -
1788404433 28.33° C 65% 1012.5 hPa 0 mm - 0 W/m² -
1788403861 28.89° C 63% 1012.4 hPa 0 mm - 0 W/m² -
1788403220 29.44° C 61% 1012.5 hPa 0 mm - 0 W/m² -
1788402634 29.44° C 60% 1012.4 hPa 0 mm - 0 W/m² -
1788402052 29.44° C 61% 1012.2 hPa 0 mm - 0 W/m² -
1788401476 28.89° C 63% 1012 hPa 0 mm - 0 W/m² -
1788400833 28.89° C 62% 1012 hPa 0 mm - 0 W/m² -
1788400261 29.44° C 61% 1011.9 hPa 0 mm - 0 W/m² -
1788399687 29.44° C 62% 1011.7 hPa 0 mm - 0 W/m² -

* Rain latest hour (hover to see other rain measurements)
** Current wind speed in m/s (hover to see current wind gust speed)